Wetterstation 29328 Müden/Ö

Wetterdaten: aktuell Freitag, 17.09.2021 22:00
Datum Zeit Temp. A. Feuchte A. Luftdruck Regen Wind Richtung Richtung Sonnenschein Solar Windben
17.09.2021 22:00 13,3 C 83 % 1014,8 hPa 0,0 l/m 2,0 km/h (1 Bft) W-NW 286 0 min 0 W/m 4,8 km/h (1 Bft)
17.09.2021 21:55 13,3 C 83 % 1014,9 hPa 0,0 l/m 1,2 km/h (1 Bft) NW 307 0 min 0 W/m 3,2 km/h (1 Bft)
17.09.2021 21:50 13,3 C 83 % 1014,8 hPa 0,0 l/m 2,2 km/h (1 Bft) W 280 0 min 0 W/m 4,8 km/h (1 Bft)
17.09.2021 21:45 13,3 C 82 % 1014,8 hPa 0,0 l/m 3,0 km/h (1 Bft) W-NW 300 0 min 0 W/m 6,4 km/h (2 Bft)
17.09.2021 21:40 13,3 C 83 % 1014,9 hPa 0,0 l/m 3,2 km/h (1 Bft) NW 304 0 min 0 W/m 6,4 km/h (2 Bft)
17.09.2021 21:35 13,3 C 83 % 1014,9 hPa 0,0 l/m 2,4 km/h (1 Bft) W-NW 300 0 min 0 W/m 4,8 km/h (1 Bft)
17.09.2021 21:30 13,3 C 84 % 1014,9 hPa 0,0 l/m 2,4 km/h (1 Bft) W-NW 296 0 min 0 W/m 4,8 km/h (1 Bft)
17.09.2021 21:25 13,3 C 83 % 1014,8 hPa 0,0 l/m 1,9 km/h (1 Bft) NW 306 0 min 0 W/m 4,8 km/h (1 Bft)
17.09.2021 21:20 13,3 C 84 % 1014,8 hPa 0,0 l/m 1,6 km/h (1 Bft) NW 307 0 min 0 W/m 3,2 km/h (1 Bft)
17.09.2021 21:15 13,3 C 84 % 1014,8 hPa 0,0 l/m 1,5 km/h (1 Bft) N 349 0 min 0 W/m 3,2 km/h (1 Bft)
17.09.2021 21:10 13,3 C 83 % 1014,8 hPa 0,0 l/m 1,7 km/h (1 Bft) N-NW 343 0 min 0 W/m 3,2 km/h (1 Bft)
17.09.2021 21:05 13,3 C 83 % 1014,8 hPa 0,0 l/m 2,0 km/h (1 Bft) N-NW 335 0 min 0 W/m 3,2 km/h (1 Bft)
17.09.2021 21:00 13,3 C 83 % 1014,7 hPa 0,0 l/m 1,0 km/h (0 Bft) NW 323 0 min 0 W/m 3,2 km/h (1 Bft)
17.09.2021 20:55 13,4 C 83 % 1014,7 hPa 0,0 l/m 1,8 km/h (1 Bft) N 360 0 min 0 W/m 3,2 km/h (1 Bft)
17.09.2021 20:50 13,4 C 83 % 1014,7 hPa 0,0 l/m 1,8 km/h (1 Bft) N 360 0 min 0 W/m 3,2 km/h (1 Bft)
17.09.2021 20:45 13,4 C 82 % 1014,7 hPa 0,0 l/m 1,7 km/h (1 Bft) N 360 0 min 0 W/m 3,2 km/h (1 Bft)
17.09.2021 20:40 13,6 C 83 % 1014,6 hPa 0,0 l/m 2,4 km/h (1 Bft) N 360 0 min 0 W/m 6,4 km/h (2 Bft)
17.09.2021 20:35 13,6 C 83 % 1014,5 hPa 0,0 l/m 2,2 km/h (1 Bft) N 360 0 min 0 W/m 4,8 km/h (1 Bft)
17.09.2021 20:30 13,7 C 82 % 1014,5 hPa 0,0 l/m 2,2 km/h (1 Bft) N 360 0 min 0 W/m 4,8 km/h (1 Bft)
17.09.2021 20:25 13,8 C 81 % 1014,4 hPa 0,0 l/m 2,8 km/h (1 Bft) N 360 0 min 0 W/m 6,4 km/h (2 Bft)
17.09.2021 20:20 13,8 C 81 % 1014,4 hPa 0,0 l/m 2,9 km/h (1 Bft) N 360 0 min 0 W/m 4,8 km/h (1 Bft)
17.09.2021 20:15 13,9 C 80 % 1014,3 hPa 0,0 l/m 3,1 km/h (1 Bft) N 360 0 min 0 W/m 6,4 km/h (2 Bft)
17.09.2021 20:10 14,0 C 80 % 1014,3 hPa 0,0 l/m 2,8 km/h (1 Bft) N 360 0 min 0 W/m 4,8 km/h (1 Bft)
17.09.2021 20:05 14,1 C 79 % 1014,3 hPa 0,0 l/m 4,1 km/h (1 Bft) N 360 0 min 0 W/m 9,7 km/h (2 Bft)
17.09.2021 20:00 14,2 C 80 % 1014,3 hPa 0,0 l/m 3,7 km/h (1 Bft) N 360 0 min 0 W/m 8,0 km/h (2 Bft)
17.09.2021 19:55 14,3 C 80 % 1014,3 hPa 0,0 l/m 4,0 km/h (1 Bft) N 360 0 min 0 W/m 8,0 km/h (2 Bft)
17.09.2021 19:50 14,3 C 80 % 1014,3 hPa 0,0 l/m 3,2 km/h (1 Bft) N 360 0 min 0 W/m 6,4 km/h (2 Bft)
17.09.2021 19:45 14,3 C 80 % 1014,3 hPa 0,0 l/m 2,8 km/h (1 Bft) N 360 0 min 0 W/m 6,4 km/h (2 Bft)
17.09.2021 19:40 14,4 C 79 % 1014,3 hPa 0,0 l/m 2,4 km/h (1 Bft) N 360 0 min 0 W/m 6,4 km/h (2 Bft)
17.09.2021 19:35 14,5 C 78 % 1014,3 hPa 0,0 l/m 3,0 km/h (1 Bft) N 360 0 min 0 W/m 6,4 km/h (2 Bft)
17.09.2021 19:30 14,6 C 78 % 1014,3 hPa 0,0 l/m 3,0 km/h (1 Bft) N 360 0 min 0 W/m 9,7 km/h (2 Bft)
17.09.2021 19:25 14,7 C 78 % 1014,3 hPa 0,0 l/m 4,6 km/h (1 Bft) N 360 0 min 0 W/m 8,0 km/h (2 Bft)
17.09.2021 19:20 14,7 C 77 % 1014,3 hPa 0,0 l/m 4,3 km/h (1 Bft) N 360 0 min 0 W/m 9,7 km/h (2 Bft)
17.09.2021 19:15 14,8 C 77 % 1014,3 hPa 0,0 l/m 5,3 km/h (1 Bft) N 360 0 min 5 W/m 9,7 km/h (2 Bft)
17.09.2021 19:10 14,8 C 76 % 1014,3 hPa 0,0 l/m 6,1 km/h (2 Bft) N 360 0 min 7 W/m 14,5 km/h (3 Bft)
17.09.2021 19:05 14,8 C 76 % 1014,2 hPa 0,0 l/m 4,9 km/h (1 Bft) N 360 0 min 11 W/m 8,0 km/h (2 Bft)
17.09.2021 19:00 14,9 C 76 % 1014,2 hPa 0,0 l/m 6,0 km/h (2 Bft) N 360 0 min 14 W/m 9,7 km/h (2 Bft)
17.09.2021 18:55 14,9 C 75 % 1014,2 hPa 0,0 l/m 8,8 km/h (2 Bft) N 360 0 min 21 W/m 16,1 km/h (3 Bft)
17.09.2021 18:50 15,0 C 77 % 1014,3 hPa 0,0 l/m 3,4 km/h (1 Bft) N 360 0 min 26 W/m 9,7 km/h (2 Bft)
17.09.2021 18:45 15,1 C 75 % 1014,2 hPa 0,0 l/m 5,2 km/h (1 Bft) N 360 0 min 28 W/m 8,0 km/h (2 Bft)
17.09.2021 18:40 15,2 C 76 % 1014,2 hPa 0,0 l/m 4,2 km/h (1 Bft) N 360 0 min 39 W/m 8,0 km/h (2 Bft)
17.09.2021 18:35 15,3 C 74 % 1014,2 hPa 0,0 l/m 5,3 km/h (1 Bft) N 360 0 min 40 W/m 9,7 km/h (2 Bft)
17.09.2021 18:30 15,4 C 73 % 1014,2 hPa 0,0 l/m 6,5 km/h (2 Bft) N 360 0 min 49 W/m 16,1 km/h (3 Bft)
17.09.2021 18:25 15,6 C 72 % 1014,1 hPa 0,0 l/m 7,6 km/h (2 Bft) N 360 0 min 44 W/m 16,1 km/h (3 Bft)
17.09.2021 18:20 15,7 C 72 % 1014,1 hPa 0,0 l/m 11,1 km/h (2 Bft) N 360 0 min 58 W/m 20,9 km/h (4 Bft)
17.09.2021 18:15 15,8 C 72 % 1014,1 hPa 0,0 l/m 9,1 km/h (2 Bft) N 360 0 min 58 W/m 19,3 km/h (3 Bft)
17.09.2021 18:10 15,8 C 71 % 1014,1 hPa 0,0 l/m 12,9 km/h (3 Bft) N-NW 340 0 min 74 W/m 20,9 km/h (4 Bft)
17.09.2021 18:05 15,9 C 72 % 1014,1 hPa 0,0 l/m 11,8 km/h (2 Bft) N-NW 344 0 min 81 W/m 24,1 km/h (4 Bft)
17.09.2021 18:00 16,0 C 73 % 1014,1 hPa 0,0 l/m 10,6 km/h (2 Bft) N 360 0 min 67 W/m 19,3 km/h (3 Bft)
17.09.2021 17:55 16,0 C 72 % 1014,1 hPa 0,0 l/m 7,6 km/h (2 Bft) N 360 0 min 91 W/m 14,5 km/h (3 Bft)
17.09.2021 17:50 16,1 C 73 % 1014,1 hPa 0,0 l/m 7,3 km/h (2 Bft) N 350 0 min 97 W/m 14,5 km/h (3 Bft)
17.09.2021 17:45 16,2 C 72 % 1014,1 hPa 0,0 l/m 10,9 km/h (2 Bft) N-NO 24 0 min 69 W/m 20,9 km/h (4 Bft)
17.09.2021 17:40 16,5 C 71 % 1014,1 hPa 0,0 l/m 10,3 km/h (2 Bft) W-NW 300 0 min 62 W/m 19,3 km/h (3 Bft)
17.09.2021 17:35 16,7 C 69 % 1014,0 hPa 0,0 l/m 15,0 km/h (3 Bft) NW 318 0 min 111 W/m 27,4 km/h (4 Bft)
17.09.2021 17:30 16,7 C 71 % 1014,1 hPa 0,0 l/m 11,9 km/h (2 Bft) NW 324 5 min 176 W/m 25,7 km/h (4 Bft)
17.09.2021 17:25 16,6 C 73 % 1014,0 hPa 0,0 l/m 9,6 km/h (2 Bft) N 360 0 min 120 W/m 17,7 km/h (3 Bft)
17.09.2021 17:20 16,3 C 74 % 1014,0 hPa 0,0 l/m 9,0 km/h (2 Bft) N 360 0 min 90 W/m 17,7 km/h (3 Bft)
17.09.2021 17:15 16,2 C 75 % 1014,0 hPa 0,0 l/m 6,6 km/h (2 Bft) N 360 0 min 76 W/m 17,7 km/h (3 Bft)
17.09.2021 17:10 16,2 C 74 % 1014,0 hPa 0,0 l/m 9,2 km/h (2 Bft) NW 312 0 min 84 W/m 19,3 km/h (3 Bft)
17.09.2021 17:05 16,2 C 75 % 1014,0 hPa 0,0 l/m 7,4 km/h (2 Bft) NW 317 0 min 77 W/m 14,5 km/h (3 Bft)
17.09.2021 17:00 16,2 C 75 % 1014,0 hPa 0,0 l/m 10,0 km/h (2 Bft) NW 318 0 min 113 W/m 16,1 km/h (3 Bft)
_ Min-Zeit 21:00 17:35 06:35 - 21:00 - - - - 20:45
Minimum _ 13,3 C 69 % 1013,5 hPa - 1,0 km/h (0 Bft) - - - - 3,2 km/h (1 Bft)
_ Max-Zeit 15:30 04:40 21:30 02:45 11:25 - - 10:30 12:25 11:10
Maximum _ 17,6 C 96 % 1014,9 hPa 0,2 l/m 15,6 km/h
NO (3 Bft)
- - 5 min 798 W/m 27,4 km/h
N (4 Bft)
Durchschnitt _ 14,8 C 86 % 1014,1 hPa #0,6 l/m 7,3 km/h (2 Bft) N - #2:05 h 179 W/m 15,2 km/h (3 Bft)

nach oben

Copyright 2006 - 2021 fr den gesamten Inhalt der Webseite